createdAt,value
2022-09-28T00:00:29.496Z,0.00
2022-09-28T00:01:29.529Z,0.00
2022-09-28T00:02:29.614Z,0.00
2022-09-28T00:03:29.492Z,0.00
2022-09-28T00:04:29.501Z,0.00
2022-09-28T00:05:29.490Z,0.00
2022-09-28T00:06:29.488Z,0.00
2022-09-28T00:07:29.486Z,0.00
2022-09-28T00:08:29.480Z,0.00
2022-09-28T00:09:29.480Z,0.00
2022-09-28T00:10:29.506Z,0.00
2022-09-28T00:11:29.479Z,0.00
2022-09-28T00:12:29.478Z,0.00
2022-09-28T00:13:29.481Z,0.00
2022-09-28T00:14:29.473Z,0.00
2022-09-28T00:15:29.471Z,0.00
2022-09-28T00:16:29.540Z,0.00
2022-09-28T00:17:29.470Z,0.00
2022-09-28T00:18:29.471Z,0.00
2022-09-28T00:19:29.462Z,0.00
2022-09-28T00:20:29.470Z,0.00
2022-09-28T00:21:29.464Z,0.00
2022-09-28T00:22:29.462Z,0.00
2022-09-28T00:23:29.458Z,0.00
2022-09-28T00:24:29.459Z,0.00
2022-09-28T00:25:29.458Z,0.00
2022-09-28T00:26:29.485Z,0.00
2022-09-28T00:27:29.457Z,0.00
2022-09-28T00:28:29.458Z,0.00
2022-09-28T00:29:29.453Z,0.00
2022-09-28T00:30:29.451Z,0.00
2022-09-28T00:31:29.549Z,0.00
2022-09-28T00:32:29.447Z,0.00
2022-09-28T00:33:29.449Z,0.00
2022-09-28T00:34:29.447Z,0.00
2022-09-28T00:35:29.443Z,0.00
2022-09-28T00:36:29.444Z,0.00
2022-09-28T00:37:29.439Z,0.00
2022-09-28T00:38:29.442Z,0.00
2022-09-28T00:39:29.438Z,0.00
2022-09-28T00:40:29.457Z,0.00
2022-09-28T00:41:29.439Z,0.00
2022-09-28T00:42:29.456Z,0.00
2022-09-28T00:43:29.432Z,0.00
2022-09-28T00:44:29.431Z,0.00
2022-09-28T00:45:29.438Z,0.00
2022-09-28T00:46:29.429Z,0.00
2022-09-28T00:47:29.478Z,0.00
2022-09-28T00:48:29.426Z,0.00
2022-09-28T00:49:29.426Z,0.00
2022-09-28T00:50:29.422Z,0.00
2022-09-28T00:51:29.420Z,0.00
2022-09-28T00:52:29.421Z,0.00
2022-09-28T00:53:29.419Z,0.00
2022-09-28T00:54:29.419Z,0.00
2022-09-28T00:55:29.411Z,0.00
2022-09-28T00:56:29.416Z,0.00
2022-09-28T00:57:29.412Z,0.00
2022-09-28T00:58:29.436Z,0.00
2022-09-28T00:59:29.420Z,0.00
2022-09-28T01:00:29.503Z,0.00
2022-09-28T01:01:29.410Z,0.00
2022-09-28T01:02:29.502Z,0.00
2022-09-28T01:03:29.402Z,0.00
2022-09-28T01:04:30.101Z,0.00
2022-09-28T01:05:29.406Z,0.00
2022-09-28T01:06:29.404Z,0.00
2022-09-28T01:07:29.396Z,0.00
2022-09-28T01:08:29.401Z,0.00
2022-09-28T01:09:29.392Z,0.00
2022-09-28T01:10:29.395Z,0.00
2022-09-28T01:11:29.394Z,0.00
2022-09-28T01:12:29.390Z,0.00
2022-09-28T01:13:29.396Z,0.00
2022-09-28T01:14:29.411Z,0.00
2022-09-28T01:15:29.384Z,0.00
2022-09-28T01:16:29.482Z,0.00
2022-09-28T01:17:29.385Z,0.00
2022-09-28T01:18:29.388Z,0.00
2022-09-28T01:19:29.378Z,0.00
2022-09-28T01:20:29.379Z,0.00
2022-09-28T01:21:29.381Z,0.00
2022-09-28T01:22:29.380Z,0.00
2022-09-28T01:23:29.376Z,0.00
2022-09-28T01:24:29.376Z,0.00
2022-09-28T01:25:29.373Z,0.00
2022-09-28T01:26:29.375Z,0.00
2022-09-28T01:27:29.371Z,0.00
2022-09-28T01:28:29.373Z,0.00
2022-09-28T01:29:29.366Z,0.00
2022-09-28T01:30:29.394Z,0.00
2022-09-28T01:31:29.496Z,0.00
2022-09-28T01:32:29.374Z,0.00
2022-09-28T01:33:29.368Z,0.00
2022-09-28T01:34:29.364Z,0.00
2022-09-28T01:35:29.360Z,0.00
2022-09-28T01:36:29.362Z,0.00
2022-09-28T01:37:29.356Z,0.00
2022-09-28T01:38:29.356Z,0.00
2022-09-28T01:39:29.355Z,0.00
2022-09-28T01:40:29.490Z,0.00
2022-09-28T01:41:29.350Z,0.00
2022-09-28T01:42:29.359Z,0.00
2022-09-28T01:43:29.350Z,0.00
2022-09-28T01:44:29.351Z,0.00
2022-09-28T01:45:29.442Z,0.00
2022-09-28T01:46:29.365Z,0.00
2022-09-28T01:47:29.363Z,0.00
2022-09-28T01:48:29.342Z,0.00
2022-09-28T01:49:29.361Z,0.00
2022-09-28T01:50:29.361Z,0.00
2022-09-28T01:51:29.354Z,0.00
2022-09-28T01:52:29.360Z,0.00
2022-09-28T01:53:29.368Z,0.00
2022-09-28T01:54:29.350Z,0.00
2022-09-28T01:55:29.368Z,0.00
2022-09-28T01:56:29.345Z,0.00
2022-09-28T01:57:29.346Z,0.00
2022-09-28T01:58:29.340Z,0.00
2022-09-28T01:59:29.330Z,0.00
2022-09-28T02:00:29.491Z,0.00
2022-09-28T02:01:29.327Z,0.00
2022-09-28T02:02:29.479Z,0.00
2022-09-28T02:03:29.324Z,0.00
2022-09-28T02:04:29.322Z,0.00
2022-09-28T02:05:29.323Z,0.00
2022-09-28T02:06:29.324Z,0.00
2022-09-28T02:07:29.324Z,0.00
2022-09-28T02:08:29.317Z,0.00
2022-09-28T02:09:33.573Z,0.00
2022-09-28T02:10:29.314Z,0.00
2022-09-28T02:11:29.318Z,0.00
2022-09-28T02:12:29.313Z,0.00
2022-09-28T02:13:29.314Z,0.00
2022-09-28T02:14:29.306Z,0.00
2022-09-28T02:15:29.313Z,0.00
2022-09-28T02:16:29.406Z,0.00
2022-09-28T02:17:29.306Z,0.00
2022-09-28T02:18:29.427Z,0.00
2022-09-28T02:19:29.306Z,0.00
2022-09-28T02:20:29.300Z,0.00
2022-09-28T02:21:29.299Z,0.00
2022-09-28T02:22:29.298Z,0.00
2022-09-28T02:23:29.298Z,0.00
2022-09-28T02:24:29.296Z,0.00
2022-09-28T02:25:29.298Z,0.00
2022-09-28T02:26:29.300Z,0.00
2022-09-28T02:27:29.291Z,0.00
2022-09-28T02:28:29.293Z,0.00
2022-09-28T02:29:29.294Z,0.00
2022-09-28T02:30:29.286Z,0.00
2022-09-28T02:31:29.368Z,0.00
2022-09-28T02:32:29.287Z,0.00
2022-09-28T02:33:29.286Z,0.00
2022-09-28T02:34:29.307Z,0.00
2022-09-28T02:35:29.282Z,0.00
2022-09-28T02:36:29.283Z,0.00
2022-09-28T02:37:29.288Z,0.00
2022-09-28T02:38:29.283Z,0.00
2022-09-28T02:39:29.282Z,0.00
2022-09-28T02:40:29.363Z,0.00
2022-09-28T02:41:29.276Z,0.00
2022-09-28T02:42:29.271Z,0.00
2022-09-28T02:43:29.276Z,0.00
2022-09-28T02:44:29.276Z,0.00
2022-09-28T02:45:29.309Z,0.00
2022-09-28T02:46:29.270Z,0.00
2022-09-28T02:47:29.320Z,0.00
2022-09-28T02:48:43.002Z,0.00
2022-09-28T02:49:29.268Z,0.00
2022-09-28T02:50:29.283Z,0.00
2022-09-28T02:51:29.262Z,0.00
2022-09-28T02:52:29.256Z,0.00
2022-09-28T02:53:29.263Z,0.00
2022-09-28T02:54:29.260Z,0.00
2022-09-28T02:55:29.257Z,0.00
2022-09-28T02:56:29.255Z,0.00
2022-09-28T02:57:29.254Z,0.00
2022-09-28T02:58:29.250Z,0.00
2022-09-28T02:59:29.253Z,0.00
2022-09-28T03:00:29.252Z,0.00
2022-09-28T03:01:29.252Z,0.00
2022-09-28T03:02:29.384Z,0.00
2022-09-28T03:03:29.248Z,0.00
2022-09-28T03:04:29.248Z,0.00
2022-09-28T03:05:29.245Z,0.00
2022-09-28T03:06:29.267Z,0.00
2022-09-28T03:07:29.242Z,0.00
2022-09-28T03:08:29.247Z,0.00
2022-09-28T03:09:29.245Z,0.00
2022-09-28T03:10:29.237Z,0.00
2022-09-28T03:11:29.237Z,0.00
2022-09-28T03:12:29.235Z,0.00
2022-09-28T03:13:29.238Z,0.00
2022-09-28T03:14:29.233Z,0.00
2022-09-28T03:15:29.232Z,0.00
2022-09-28T03:16:29.250Z,0.00
2022-09-28T03:17:29.231Z,0.00
2022-09-28T03:18:29.230Z,0.00
2022-09-28T03:19:29.225Z,0.00
2022-09-28T03:20:29.225Z,0.00
2022-09-28T03:21:29.224Z,0.00
2022-09-28T03:22:29.244Z,0.00
2022-09-28T03:23:29.226Z,0.00
2022-09-28T03:24:29.219Z,0.00
2022-09-28T03:25:29.221Z,0.00
2022-09-28T03:26:29.218Z,0.00
2022-09-28T03:27:29.215Z,0.00
2022-09-28T03:28:29.217Z,0.00
2022-09-28T03:29:29.213Z,0.00
2022-09-28T03:30:29.212Z,0.00
2022-09-28T03:31:29.234Z,0.00
2022-09-28T03:32:29.212Z,0.00
2022-09-28T03:33:29.205Z,0.00
2022-09-28T03:34:29.201Z,0.00
2022-09-28T03:35:29.211Z,0.00
2022-09-28T03:36:29.203Z,0.00
2022-09-28T03:37:29.205Z,0.00
2022-09-28T03:38:29.229Z,0.00
2022-09-28T03:39:29.197Z,0.00
2022-09-28T03:40:29.266Z,0.00
2022-09-28T03:41:29.196Z,0.00
2022-09-28T03:42:29.193Z,0.00
2022-09-28T03:43:29.195Z,0.00
2022-09-28T03:44:29.196Z,0.00
2022-09-28T03:45:29.210Z,0.00
2022-09-28T03:46:29.190Z,0.00
2022-09-28T03:47:29.236Z,0.00
2022-09-28T03:48:32.359Z,0.00
2022-09-28T03:49:29.188Z,0.00
2022-09-28T03:50:29.186Z,0.00
2022-09-28T03:51:29.184Z,0.00
2022-09-28T03:52:29.186Z,0.00
2022-09-28T03:53:29.183Z,0.00
2022-09-28T03:54:29.208Z,0.00
2022-09-28T03:55:29.182Z,0.00
2022-09-28T03:56:29.182Z,0.00
2022-09-28T03:57:29.181Z,0.00
2022-09-28T03:58:29.176Z,0.00
2022-09-28T03:59:29.173Z,0.00
2022-09-28T04:00:29.172Z,0.00
2022-09-28T04:01:29.309Z,0.00
2022-09-28T04:02:29.255Z,0.00
2022-09-28T04:03:29.178Z,0.00
2022-09-28T04:04:29.171Z,0.00
2022-09-28T04:05:29.169Z,0.00
2022-09-28T04:06:29.165Z,0.00
2022-09-28T04:07:31.238Z,0.00
2022-09-28T04:08:29.168Z,0.00
2022-09-28T04:09:29.161Z,0.00
2022-09-28T04:10:29.180Z,0.00
2022-09-28T04:11:38.522Z,0.00
2022-09-28T04:12:29.154Z,0.00
2022-09-28T04:13:29.155Z,0.00
2022-09-28T04:14:29.164Z,0.00
2022-09-28T04:15:29.155Z,0.00
2022-09-28T04:16:29.218Z,0.00
2022-09-28T04:17:29.152Z,0.00
2022-09-28T04:18:29.153Z,0.00
2022-09-28T04:19:29.153Z,0.00
2022-09-28T04:20:29.145Z,0.00
2022-09-28T04:21:29.147Z,0.00
2022-09-28T04:22:29.145Z,0.00
2022-09-28T04:23:29.142Z,0.00
2022-09-28T04:24:29.143Z,0.00
2022-09-28T04:25:29.143Z,0.00
2022-09-28T04:26:29.169Z,0.00
2022-09-28T04:27:29.139Z,0.00
2022-09-28T04:28:29.133Z,0.00
2022-09-28T04:29:29.137Z,0.00
2022-09-28T04:30:29.137Z,0.00
2022-09-28T04:31:29.195Z,0.00
2022-09-28T04:32:29.132Z,0.00
2022-09-28T04:33:29.132Z,0.00
2022-09-28T04:34:34.475Z,0.00
2022-09-28T04:35:29.140Z,0.00
2022-09-28T04:36:29.123Z,0.00
2022-09-28T04:37:29.128Z,0.00
2022-09-28T04:38:48.735Z,0.00
2022-09-28T04:39:29.118Z,0.00
2022-09-28T04:40:29.171Z,0.00
2022-09-28T04:41:29.118Z,0.00
2022-09-28T04:42:29.141Z,0.00
2022-09-28T04:43:29.118Z,0.00
2022-09-28T04:44:29.115Z,0.00
2022-09-28T04:45:29.161Z,0.00
2022-09-28T04:46:29.112Z,0.00
2022-09-28T04:47:29.161Z,0.00
2022-09-28T04:48:29.215Z,0.00
2022-09-28T04:49:29.107Z,0.00
2022-09-28T04:50:29.114Z,0.00
2022-09-28T04:51:29.104Z,0.00
2022-09-28T04:52:29.105Z,0.00
2022-09-28T04:53:29.102Z,0.00
2022-09-28T04:54:29.100Z,0.00
2022-09-28T04:55:29.100Z,0.00
2022-09-28T04:56:29.099Z,0.00
2022-09-28T04:57:29.091Z,0.00
2022-09-28T04:58:29.115Z,0.00
2022-09-28T04:59:29.093Z,0.00
2022-09-28T05:00:29.091Z,5.63
2022-09-28T05:01:29.195Z,5.63
2022-09-28T05:02:29.130Z,5.63
2022-09-28T05:03:29.092Z,5.63
2022-09-28T05:04:29.087Z,5.63
2022-09-28T05:05:29.086Z,5.63
2022-09-28T05:06:29.085Z,5.63
2022-09-28T05:07:29.082Z,11.25
2022-09-28T05:08:29.084Z,11.25
2022-09-28T05:09:29.085Z,11.25
2022-09-28T05:10:29.080Z,16.88
2022-09-28T05:11:29.077Z,16.88
2022-09-28T05:12:29.079Z,16.88
2022-09-28T05:13:29.076Z,16.88
2022-09-28T05:14:29.112Z,22.50
2022-09-28T05:15:29.074Z,22.50
2022-09-28T05:16:29.173Z,22.50
2022-09-28T05:17:29.074Z,22.50
2022-09-28T05:18:29.067Z,22.50
2022-09-28T05:19:29.068Z,28.13
2022-09-28T05:20:29.066Z,28.13
2022-09-28T05:21:29.066Z,28.13
2022-09-28T05:22:29.063Z,28.13
2022-09-28T05:23:29.060Z,28.13
2022-09-28T05:24:29.066Z,28.13
2022-09-28T05:25:29.059Z,28.13
2022-09-28T05:26:29.057Z,33.75
2022-09-28T05:27:29.057Z,33.75
2022-09-28T05:28:29.060Z,33.75
2022-09-28T05:29:32.259Z,33.75
2022-09-28T05:30:29.076Z,33.75
2022-09-28T05:31:29.122Z,33.75
2022-09-28T05:32:29.053Z,28.13
2022-09-28T05:33:29.048Z,33.75
2022-09-28T05:34:29.050Z,28.13
2022-09-28T05:35:29.048Z,28.13
2022-09-28T05:36:29.045Z,28.13
2022-09-28T05:37:29.045Z,28.13
2022-09-28T05:38:29.041Z,28.13
2022-09-28T05:39:29.037Z,22.50
2022-09-28T05:40:29.059Z,22.50
2022-09-28T05:41:29.036Z,22.50
2022-09-28T05:42:29.036Z,22.50
2022-09-28T05:43:29.036Z,22.50
2022-09-28T05:44:29.037Z,22.50
2022-09-28T05:45:29.122Z,22.50
2022-09-28T05:46:29.144Z,28.13
2022-09-28T05:47:29.028Z,28.13
2022-09-28T05:51:01.688Z,39.38
2022-09-28T05:52:01.658Z,39.38
2022-09-28T05:53:01.658Z,39.38
2022-09-28T05:54:05.666Z,45.00
2022-09-28T05:55:01.657Z,45.00
2022-09-28T05:56:01.655Z,50.63
2022-09-28T05:57:01.653Z,61.88
2022-09-28T05:58:01.656Z,67.50
2022-09-28T05:59:01.652Z,78.75
2022-09-28T06:00:01.653Z,90.00
2022-09-28T06:01:01.683Z,95.63
2022-09-28T06:02:01.759Z,101.25
2022-09-28T06:03:04.372Z,101.25
2022-09-28T06:04:01.649Z,106.88
2022-09-28T06:05:01.643Z,112.50
2022-09-28T06:06:01.646Z,112.50
2022-09-28T06:07:01.639Z,112.50
2022-09-28T06:08:01.640Z,106.88
2022-09-28T06:09:01.637Z,101.25
2022-09-28T06:10:01.634Z,95.63
2022-09-28T06:11:01.634Z,90.00
2022-09-28T06:12:01.632Z,78.75
2022-09-28T06:13:01.635Z,101.25
2022-09-28T06:14:01.629Z,101.25
2022-09-28T06:15:01.629Z,101.25
2022-09-28T06:16:01.637Z,106.88
2022-09-28T06:17:01.693Z,106.88
2022-09-28T06:18:01.640Z,112.50
2022-09-28T06:19:01.630Z,112.50
2022-09-28T06:20:01.623Z,112.50
2022-09-28T06:21:01.622Z,112.50
2022-09-28T06:22:01.619Z,112.50
2022-09-28T06:23:01.622Z,112.50
2022-09-28T06:24:01.617Z,123.75
2022-09-28T06:25:01.614Z,123.75
2022-09-28T06:26:01.619Z,129.38
2022-09-28T06:27:01.615Z,129.38
2022-09-28T06:28:01.615Z,135.00
2022-09-28T06:29:01.613Z,140.63
2022-09-28T06:30:01.611Z,135.00
2022-09-28T06:31:01.677Z,135.00
2022-09-28T06:32:01.604Z,112.50
2022-09-28T06:33:01.607Z,140.63
2022-09-28T06:34:01.636Z,140.63
2022-09-28T06:35:01.601Z,140.63
2022-09-28T06:36:01.606Z,146.25
2022-09-28T06:37:01.599Z,140.63
2022-09-28T06:38:01.613Z,151.88
2022-09-28T06:39:01.601Z,123.75
2022-09-28T06:40:01.596Z,163.13
2022-09-28T06:41:01.671Z,163.13
2022-09-28T06:42:01.593Z,163.13
2022-09-28T06:43:01.594Z,135.00
2022-09-28T06:44:01.593Z,163.13
2022-09-28T06:45:01.592Z,168.75
2022-09-28T06:46:01.635Z,157.50
2022-09-28T06:47:01.588Z,174.38
2022-09-28T06:48:01.600Z,174.38
2022-09-28T06:49:01.589Z,180.00
2022-09-28T06:50:01.607Z,185.63
2022-09-28T06:51:01.588Z,202.50
2022-09-28T06:52:01.582Z,196.88
2022-09-28T06:53:01.584Z,225.00
2022-09-28T06:54:01.580Z,213.75
2022-09-28T06:55:01.587Z,219.38
2022-09-28T06:56:01.577Z,213.75
2022-09-28T06:57:01.585Z,163.13
2022-09-28T06:58:01.579Z,168.75
2022-09-28T06:59:01.575Z,180.00
2022-09-28T07:00:01.573Z,230.63
2022-09-28T07:01:01.702Z,208.13
2022-09-28T07:02:01.636Z,253.13
2022-09-28T07:03:01.570Z,219.38
2022-09-28T07:04:01.577Z,253.13
2022-09-28T07:05:01.572Z,337.50
2022-09-28T07:06:01.588Z,348.75
2022-09-28T07:07:01.568Z,405.00
2022-09-28T07:08:01.570Z,410.63
2022-09-28T07:09:17.396Z,270.00
2022-09-28T07:10:01.564Z,326.25
2022-09-28T07:11:01.571Z,286.88
2022-09-28T07:12:01.566Z,286.88
2022-09-28T07:13:01.564Z,427.50
2022-09-28T07:14:01.558Z,382.50
2022-09-28T07:15:01.563Z,450.00
2022-09-28T07:16:01.560Z,511.88
2022-09-28T07:17:13.234Z,528.75
2022-09-28T07:18:03.532Z,511.88
2022-09-28T07:19:01.558Z,489.38
2022-09-28T07:20:12.742Z,455.63
2022-09-28T07:21:01.555Z,410.63
2022-09-28T07:22:05.017Z,393.75
2022-09-28T07:23:14.619Z,371.25
2022-09-28T07:24:01.557Z,286.88
2022-09-28T07:25:01.561Z,309.38
2022-09-28T07:26:01.651Z,343.13
2022-09-28T07:27:01.551Z,337.50
2022-09-28T07:28:01.551Z,371.25
2022-09-28T07:29:01.555Z,393.75
2022-09-28T07:30:01.580Z,416.25
2022-09-28T07:31:01.616Z,461.25
2022-09-28T07:32:01.546Z,500.63
2022-09-28T07:33:01.549Z,500.63
2022-09-28T07:34:01.547Z,511.88
2022-09-28T07:35:01.559Z,523.13
2022-09-28T07:36:01.544Z,523.13
2022-09-28T07:37:01.544Z,489.38
2022-09-28T07:38:01.570Z,450.00
2022-09-28T07:39:01.545Z,433.13
2022-09-28T07:40:01.547Z,438.75
2022-09-28T07:41:01.653Z,450.00
2022-09-28T07:42:03.043Z,455.63
2022-09-28T07:43:01.544Z,455.63
2022-09-28T07:44:01.549Z,450.00
2022-09-28T07:45:01.541Z,444.38
2022-09-28T07:46:01.656Z,433.13
2022-09-28T07:47:01.544Z,433.13
2022-09-28T07:48:01.668Z,444.38
2022-09-28T07:49:01.539Z,1209.38
2022-09-28T07:50:01.559Z,1057.50
2022-09-28T07:51:01.540Z,585.00
2022-09-28T07:52:01.541Z,444.38
2022-09-28T07:53:01.537Z,438.75
2022-09-28T07:54:01.563Z,461.25
2022-09-28T07:55:06.686Z,500.63
2022-09-28T07:56:01.541Z,534.38
2022-09-28T07:57:01.541Z,421.88
2022-09-28T07:58:01.539Z,376.88
2022-09-28T07:59:01.540Z,371.25
2022-09-28T08:00:01.538Z,410.63
2022-09-28T08:01:01.617Z,630.00
2022-09-28T08:02:01.605Z,680.63
2022-09-28T08:03:01.539Z,635.63
2022-09-28T08:04:01.540Z,742.50
2022-09-28T08:05:01.549Z,843.75
2022-09-28T08:06:01.539Z,838.13
2022-09-28T08:07:01.539Z,798.75
2022-09-28T08:08:01.543Z,787.50
2022-09-28T08:09:01.548Z,826.88
2022-09-28T08:10:01.556Z,630.00
2022-09-28T08:11:01.545Z,669.38
2022-09-28T08:12:01.546Z,675.00
2022-09-28T08:13:02.872Z,961.88
2022-09-28T08:14:01.540Z,1085.63
2022-09-28T08:15:01.541Z,1068.75
2022-09-28T08:16:01.554Z,1271.25
2022-09-28T08:17:01.561Z,1434.38
2022-09-28T08:18:02.921Z,1524.38
2022-09-28T08:19:01.540Z,1631.25
2022-09-28T08:20:01.553Z,1220.63
2022-09-28T08:21:01.543Z,1479.38
2022-09-28T08:22:01.538Z,1901.25
2022-09-28T08:23:01.573Z,883.13
2022-09-28T08:24:01.540Z,1366.88
2022-09-28T08:25:01.541Z,2058.75
2022-09-28T08:26:01.567Z,663.75
2022-09-28T08:27:01.547Z,731.25
2022-09-28T08:28:01.555Z,877.50
2022-09-28T08:29:01.550Z,2165.63
2022-09-28T08:30:01.547Z,804.38
2022-09-28T08:31:01.665Z,961.88
2022-09-28T08:32:02.027Z,714.38
2022-09-28T08:33:01.553Z,697.50
2022-09-28T08:34:01.552Z,641.25
2022-09-28T08:35:01.552Z,585.00
2022-09-28T08:36:01.552Z,736.88
2022-09-28T08:37:01.557Z,466.88
2022-09-28T08:38:01.548Z,517.50
2022-09-28T08:39:01.551Z,421.88
2022-09-28T08:40:01.559Z,399.38
2022-09-28T08:41:01.610Z,444.38
2022-09-28T08:42:01.574Z,472.50
2022-09-28T08:43:01.555Z,556.88
2022-09-28T08:44:01.577Z,506.25
2022-09-28T08:45:01.561Z,495.00
2022-09-28T08:46:01.669Z,427.50
2022-09-28T08:47:01.567Z,343.13
2022-09-28T08:48:01.554Z,320.63
2022-09-28T08:49:20.980Z,337.50
2022-09-28T08:50:01.596Z,365.63
2022-09-28T08:51:01.563Z,348.75
2022-09-28T08:52:01.561Z,298.13
2022-09-28T08:53:01.564Z,253.13
2022-09-28T08:54:01.566Z,236.25
2022-09-28T08:55:01.565Z,236.25
2022-09-28T08:56:01.562Z,247.50
2022-09-28T08:57:01.571Z,298.13
2022-09-28T08:58:01.580Z,376.88
2022-09-28T08:59:01.563Z,545.63
2022-09-28T09:00:01.567Z,714.38
2022-09-28T09:01:01.608Z,1057.50
2022-09-28T09:02:02.144Z,3538.13
2022-09-28T09:03:01.563Z,2041.88
2022-09-28T09:04:01.568Z,731.25
2022-09-28T09:05:01.562Z,613.13
2022-09-28T09:06:01.563Z,573.75
2022-09-28T09:07:01.561Z,613.13
2022-09-28T09:08:01.563Z,624.38
2022-09-28T09:09:01.566Z,680.63
2022-09-28T09:10:01.567Z,641.25
2022-09-28T09:11:01.565Z,736.88
2022-09-28T09:12:01.568Z,804.38
2022-09-28T09:13:01.576Z,787.50
2022-09-28T09:14:01.587Z,635.63
2022-09-28T09:15:01.565Z,618.75
2022-09-28T09:16:01.568Z,635.63
2022-09-28T09:17:01.621Z,630.00
2022-09-28T09:18:01.569Z,630.00
2022-09-28T09:19:01.575Z,618.75
2022-09-28T09:20:01.603Z,618.75
2022-09-28T09:21:01.571Z,646.88
2022-09-28T09:22:01.568Z,646.88
2022-09-28T09:23:01.571Z,613.13
2022-09-28T09:24:01.575Z,624.38
2022-09-28T09:25:01.569Z,635.63
2022-09-28T09:26:01.566Z,585.00
2022-09-28T09:27:01.577Z,551.25
2022-09-28T09:28:01.580Z,511.88
2022-09-28T09:29:01.572Z,528.75
2022-09-28T09:30:01.601Z,517.50
2022-09-28T09:31:01.608Z,511.88
2022-09-28T09:32:01.571Z,506.25
2022-09-28T09:33:01.572Z,489.38
2022-09-28T09:34:01.579Z,472.50
2022-09-28T09:35:01.576Z,455.63
2022-09-28T09:36:01.571Z,455.63
2022-09-28T09:37:01.575Z,478.13
2022-09-28T09:38:01.574Z,478.13
2022-09-28T09:39:01.576Z,483.75
2022-09-28T09:40:01.575Z,489.38
2022-09-28T09:41:01.730Z,500.63
2022-09-28T09:42:01.578Z,511.88
2022-09-28T09:43:01.578Z,523.13
2022-09-28T09:44:01.577Z,534.38
2022-09-28T09:45:01.593Z,551.25
2022-09-28T09:46:02.039Z,573.75
2022-09-28T09:47:01.572Z,601.88
2022-09-28T09:48:01.575Z,652.50
2022-09-28T09:49:01.579Z,708.75
2022-09-28T09:50:05.311Z,832.50
2022-09-28T09:51:01.577Z,1023.75
2022-09-28T09:52:01.574Z,1220.63
2022-09-28T09:53:01.585Z,1462.50
2022-09-28T09:54:01.574Z,1704.38
2022-09-28T09:55:01.583Z,2154.38
2022-09-28T09:56:01.586Z,2295.00
2022-09-28T09:57:01.577Z,2255.63
2022-09-28T09:58:01.574Z,2328.75
2022-09-28T09:59:01.579Z,2373.75
2022-09-28T10:00:01.578Z,2497.50
2022-09-28T10:01:01.671Z,3105.00
2022-09-28T10:02:01.654Z,2677.50
2022-09-28T10:03:01.650Z,1968.75
2022-09-28T10:04:01.582Z,860.63
2022-09-28T10:05:01.580Z,1501.88
2022-09-28T10:06:01.580Z,1620.00
2022-09-28T10:07:01.581Z,1670.63
2022-09-28T10:08:01.585Z,1811.25
2022-09-28T10:09:01.586Z,1614.38
2022-09-28T10:10:01.585Z,1693.13
2022-09-28T10:11:01.583Z,1985.63
2022-09-28T10:12:01.593Z,2576.25
2022-09-28T10:13:01.586Z,2503.13
2022-09-28T10:14:01.588Z,967.50
2022-09-28T10:15:01.591Z,663.75
2022-09-28T10:16:01.593Z,658.13
2022-09-28T10:17:01.628Z,877.50
2022-09-28T10:18:01.622Z,3909.38
2022-09-28T10:19:01.591Z,1445.63
2022-09-28T10:20:01.595Z,3436.88
2022-09-28T10:21:01.596Z,4100.63
2022-09-28T10:22:01.604Z,4370.63
2022-09-28T10:23:01.601Z,1631.25
2022-09-28T10:24:01.604Z,2581.88
2022-09-28T10:25:01.601Z,3583.13
2022-09-28T10:26:01.605Z,4567.50
2022-09-28T10:27:01.611Z,720.00
2022-09-28T10:28:01.607Z,556.88
2022-09-28T10:29:01.617Z,466.88
2022-09-28T10:30:01.615Z,416.25
2022-09-28T10:31:01.773Z,371.25
2022-09-28T10:32:01.622Z,343.13
2022-09-28T10:33:01.618Z,309.38
2022-09-28T10:34:01.645Z,275.63
2022-09-28T10:35:01.632Z,247.50
2022-09-28T10:36:01.631Z,191.25
2022-09-28T10:37:01.628Z,168.75
2022-09-28T10:38:01.634Z,174.38
2022-09-28T10:39:01.639Z,163.13
2022-09-28T10:40:01.632Z,129.38
2022-09-28T10:41:01.727Z,106.88
2022-09-28T10:42:01.636Z,106.88
2022-09-28T10:43:01.637Z,112.50
2022-09-28T10:44:01.642Z,118.13
2022-09-28T10:45:01.646Z,123.75
2022-09-28T10:46:01.770Z,135.00
2022-09-28T10:47:01.647Z,118.13
2022-09-28T10:48:01.649Z,90.00
2022-09-28T10:49:01.647Z,67.50
2022-09-28T10:50:01.672Z,56.25
2022-09-28T10:51:01.648Z,56.25
2022-09-28T10:52:01.665Z,67.50
2022-09-28T10:53:01.656Z,78.75
2022-09-28T10:54:01.662Z,95.63
2022-09-28T10:55:01.659Z,95.63
2022-09-28T10:56:01.656Z,95.63
2022-09-28T10:57:01.654Z,101.25
2022-09-28T10:58:01.660Z,101.25
2022-09-28T10:59:01.662Z,118.13
2022-09-28T11:00:01.660Z,146.25
2022-09-28T11:01:01.807Z,168.75
2022-09-28T11:02:01.751Z,185.63
2022-09-28T11:03:01.727Z,213.75
2022-09-28T11:04:01.666Z,225.00
2022-09-28T11:05:01.663Z,225.00
2022-09-28T11:06:01.684Z,219.38
2022-09-28T11:07:01.687Z,219.38
2022-09-28T11:08:01.666Z,241.88
2022-09-28T11:09:01.668Z,292.50
2022-09-28T11:10:01.668Z,354.38
2022-09-28T11:11:01.675Z,433.13
2022-09-28T11:12:01.670Z,534.38
2022-09-28T11:13:01.669Z,556.88
2022-09-28T11:14:01.674Z,562.50
2022-09-28T11:15:01.673Z,573.75
2022-09-28T11:16:01.670Z,556.88
2022-09-28T11:17:01.787Z,528.75
2022-09-28T11:18:01.671Z,495.00
2022-09-28T11:19:01.673Z,461.25
2022-09-28T11:20:01.671Z,427.50
2022-09-28T11:21:01.673Z,382.50
2022-09-28T11:22:01.691Z,331.88
2022-09-28T11:23:01.674Z,303.75
2022-09-28T11:24:01.677Z,281.25
2022-09-28T11:25:01.675Z,258.75
2022-09-28T11:26:01.678Z,241.88
2022-09-28T11:27:01.670Z,230.63
2022-09-28T11:28:01.675Z,219.38
2022-09-28T11:29:01.670Z,191.25
2022-09-28T11:30:01.674Z,180.00
2022-09-28T11:31:01.757Z,168.75
2022-09-28T11:32:01.673Z,168.75
2022-09-28T11:33:01.672Z,157.50
2022-09-28T11:34:01.677Z,151.88
2022-09-28T11:35:01.669Z,146.25
2022-09-28T11:36:01.674Z,146.25
2022-09-28T11:37:02.062Z,140.63
2022-09-28T11:38:01.695Z,140.63
2022-09-28T11:39:01.682Z,146.25
2022-09-28T11:40:01.681Z,151.88
2022-09-28T11:41:01.751Z,157.50
2022-09-28T11:42:01.675Z,163.13
2022-09-28T11:43:01.753Z,168.75
2022-09-28T11:44:01.676Z,180.00
2022-09-28T11:45:01.673Z,185.63
2022-09-28T11:46:01.734Z,196.88
2022-09-28T11:47:01.678Z,208.13
2022-09-28T11:48:01.675Z,219.38
2022-09-28T11:49:01.670Z,230.63
2022-09-28T11:50:01.673Z,253.13
2022-09-28T11:51:01.673Z,275.63
2022-09-28T11:52:01.672Z,309.38
2022-09-28T11:53:01.720Z,343.13
2022-09-28T11:54:01.691Z,365.63
2022-09-28T11:55:01.687Z,388.13
2022-09-28T11:56:05.310Z,410.63
2022-09-28T11:57:01.672Z,427.50
2022-09-28T11:58:01.677Z,444.38
2022-09-28T11:59:01.667Z,472.50
2022-09-28T12:00:01.680Z,478.13
2022-09-28T12:01:01.672Z,472.50
2022-09-28T12:02:01.756Z,466.88
2022-09-28T12:03:01.782Z,455.63
2022-09-28T12:04:01.673Z,438.75
2022-09-28T12:05:01.667Z,427.50
2022-09-28T12:06:01.672Z,416.25
2022-09-28T12:07:01.673Z,416.25
2022-09-28T12:08:01.672Z,433.13
2022-09-28T12:09:01.667Z,466.88
2022-09-28T12:10:01.700Z,511.88
2022-09-28T12:11:01.668Z,534.38
2022-09-28T12:12:01.666Z,551.25
2022-09-28T12:13:01.676Z,556.88
2022-09-28T12:14:01.669Z,545.63
2022-09-28T12:15:01.670Z,523.13
2022-09-28T12:17:06.210Z,489.38
2022-09-28T12:18:01.767Z,478.13
2022-09-28T12:19:01.789Z,472.50
2022-09-28T12:20:01.678Z,472.50
2022-09-28T12:21:05.075Z,472.50
2022-09-28T12:22:01.670Z,472.50
2022-09-28T12:23:01.665Z,478.13
2022-09-28T12:24:01.666Z,483.75
2022-09-28T12:25:01.664Z,500.63
2022-09-28T12:26:01.684Z,506.25
2022-09-28T12:27:01.665Z,517.50
2022-09-28T12:28:01.665Z,523.13
2022-09-28T12:29:01.663Z,534.38
2022-09-28T12:30:01.667Z,540.00
2022-09-28T12:31:01.688Z,545.63
2022-09-28T12:32:01.664Z,551.25
2022-09-28T12:33:01.669Z,556.88
2022-09-28T12:34:01.667Z,556.88
2022-09-28T12:35:01.662Z,562.50
2022-09-28T12:36:01.664Z,568.13
2022-09-28T12:37:01.664Z,573.75
2022-09-28T12:38:01.664Z,579.38
2022-09-28T12:39:19.021Z,579.38
2022-09-28T12:40:02.136Z,573.75
2022-09-28T12:41:01.801Z,573.75
2022-09-28T12:42:01.683Z,573.75
2022-09-28T12:43:01.679Z,573.75
2022-09-28T12:44:01.663Z,573.75
2022-09-28T12:45:01.663Z,568.13
2022-09-28T12:46:13.269Z,556.88
2022-09-28T12:47:01.719Z,540.00
2022-09-28T12:48:01.663Z,523.13
2022-09-28T12:49:56.296Z,500.63
2022-09-28T12:51:02.098Z,466.88
2022-09-28T12:52:01.663Z,450.00
2022-09-28T12:53:03.133Z,438.75